Time;durP1;ratioP1;P1;durP2;ratioP2;P2;SDS_P1;SDS_P2;PMS_P1;PMS_P2;Temp;Humidity;BMP_temperature;BMP_pressure;BME280_temperature;BME280_humidity;BME280_pressure;Samples;Min_cycle;Max_cycle;Signal;HPM_P1;HPM_P2
2021/12/11 00:00:14;;;;;;;38.42;15.05;;;;;;;-3.06;85.11;100490.19;1016033;29;20056;-79
2021/12/11 00:00:52;;;;;;;34.70;14.43;;;;;;;-3.09;85.27;100494.97;1015865;29;20056;-79
2021/12/11 00:01:30;;;;;;;27.38;14.60;;;;;;;-3.04;84.94;100490.28;1023639;29;20042;-79
2021/12/11 00:02:22;;;;;;;28.23;14.95;;;;;;;-2.93;85.01;100498.63;1023583;29;20522;-79
2021/12/11 00:03:18;;;;;;;31.88;13.90;;;;;;;-2.91;85.32;100499.63;1018753;29;20534;-79
2021/12/11 00:03:54;;;;;;;31.55;14.20;;;;;;;-2.94;85.30;100500.25;1024842;28;20131;-79
2021/12/11 00:04:32;;;;;;;29.08;12.90;;;;;;;-2.91;85.66;100502.16;1013313;29;20052;-79
2021/12/11 00:05:04;;;;;;;24.25;13.52;;;;;;;-2.86;85.09;100500.84;1020612;29;20425;-79
2021/12/11 00:05:36;;;;;;;34.22;14.65;;;;;;;-2.84;85.21;100498.41;1027461;28;20534;-79
2021/12/11 00:06:11;;;;;;;33.00;13.98;;;;;;;-2.82;85.38;100506.97;1023421;29;20048;-79
2021/12/11 00:06:47;;;;;;;28.92;13.95;;;;;;;-2.84;84.86;100509.41;1027401;28;20153;-79
2021/12/11 00:07:19;;;;;;;30.63;13.45;;;;;;;-2.80;84.55;100502.94;1019604;29;20058;-80
2021/12/11 00:07:51;;;;;;;30.48;14.65;;;;;;;-2.80;85.11;100510.50;1023558;29;20487;-80
2021/12/11 00:08:27;;;;;;;31.58;14.85;;;;;;;-2.83;84.64;100511.13;1027074;28;20045;-79
2021/12/11 00:09:02;;;;;;;30.65;16.30;;;;;;;-2.81;84.46;100509.59;1019931;29;20095;-81
2021/12/11 00:09:58;;;;;;;37.55;15.98;;;;;;;-2.93;83.80;100509.56;1017425;29;20075;-79
2021/12/11 00:10:36;;;;;;;34.58;15.02;;;;;;;-2.90;84.09;100511.44;1023561;29;20130;-79
2021/12/11 00:11:25;;;;;;;31.75;15.25;;;;;;;-2.93;84.32;100512.09;1025056;28;20074;-79
2021/12/11 00:12:04;;;;;;;29.05;15.00;;;;;;;-2.93;84.24;100513.75;1023646;29;20503;-79
2021/12/11 00:12:40;;;;;;;33.08;14.90;;;;;;;-2.95;84.92;100518.69;1023566;29;20391;-79
2021/12/11 00:13:17;;;;;;;31.67;15.25;;;;;;;-3.00;84.23;100517.44;1027506;28;20050;-80
2021/12/11 00:13:52;;;;;;;33.35;14.13;;;;;;;-2.99;84.29;100513.31;1023680;29;20039;-79
2021/12/11 00:14:24;;;;;;;25.13;14.50;;;;;;;-2.97;84.34;100515.19;1021798;29;20502;-79
2021/12/11 00:15:14;;;;;;;32.80;14.80;;;;;;;-2.92;84.51;100515.50;1022474;29;20043;-79
2021/12/11 00:15:46;;;;;;;30.15;14.43;;;;;;;-2.94;84.86;100517.91;1026113;28;20047;-79
2021/12/11 00:16:18;;;;;;;33.83;15.27;;;;;;;-2.95;84.71;100526.25;1021371;29;20058;-79
2021/12/11 00:16:50;;;;;;;30.13;15.32;;;;;;;-2.93;84.82;100524.69;1020224;29;20056;-79
2021/12/11 00:17:26;;;;;;;31.17;16.02;;;;;;;-2.91;84.85;100520.66;1023689;29;20043;-79
2021/12/11 00:18:06;;;;;;;34.70;15.00;;;;;;;-2.94;84.96;100517.03;1032069;28;20516;-79
2021/12/11 00:18:38;;;;;;;27.55;14.85;;;;;;;-2.92;84.48;100528.13;1024051;29;20051;-79
2021/12/11 00:19:16;;;;;;;30.25;14.68;;;;;;;-2.89;84.57;100521.66;1020246;29;20131;-79
2021/12/11 00:19:49;;;;;;;28.92;13.68;;;;;;;-2.93;85.15;100529.75;1020473;29;20044;-79
2021/12/11 00:20:26;;;;;;;27.42;14.43;;;;;;;-2.90;85.20;100529.97;1027868;28;20071;-79
2021/12/11 00:21:06;;;;;;;30.95;15.35;;;;;;;-2.89;85.08;100526.69;1020355;29;20052;-79
2021/12/11 00:21:39;;;;;;;26.30;14.52;;;;;;;-2.92;84.92;100531.50;1032399;28;20429;-78
2021/12/11 00:22:16;;;;;;;35.78;14.23;;;;;;;-2.93;85.01;100529.75;1026254;28;20062;-79
2021/12/11 00:22:48;;;;;;;31.67;14.85;;;;;;;-2.90;84.60;100531.59;1020453;29;20071;-79
2021/12/11 00:23:24;;;;;;;32.95;14.98;;;;;;;-2.90;84.95;100535.03;1028096;28;20145;-80
2021/12/11 00:23:58;;;;;;;35.17;15.90;;;;;;;-2.92;84.94;100536.53;1020368;29;20577;-79
2021/12/11 00:24:33;;;;;;;34.60;15.45;;;;;;;-2.92;84.53;100536.53;1020262;29;20052;-79
2021/12/11 00:25:06;;;;;;;29.05;15.20;;;;;;;-2.94;84.72;100538.06;1027543;28;20062;-79
2021/12/11 00:25:43;;;;;;;36.05;15.07;;;;;;;-2.91;85.13;100539.97;1023986;29;20070;-79
2021/12/11 00:26:25;;;;;;;31.80;14.95;;;;;;;-3.00;84.12;100537.63;1025635;28;20055;-79
2021/12/11 00:27:04;;;;;;;34.72;15.38;;;;;;;-3.02;84.26;100536.66;1028299;28;20517;-79
2021/12/11 00:27:38;;;;;;;33.80;14.43;;;;;;;-3.00;84.92;100542.66;1032188;28;20104;-79
2021/12/11 00:28:10;;;;;;;29.48;14.85;;;;;;;-3.00;84.68;100537.63;1027495;28;20055;-79
2021/12/11 00:28:45;;;;;;;30.10;15.27;;;;;;;-2.94;83.96;100543.09;1027970;28;20047;-79
2021/12/11 00:29:20;;;;;;;34.90;15.15;;;;;;;-2.97;84.44;100547.94;1024110;29;20198;-78
2021/12/11 00:29:52;;;;;;;33.65;14.48;;;;;;;-2.91;84.58;100550.91;1024307;28;20062;-79
2021/12/11 00:30:26;;;;;;;30.67;15.30;;;;;;;-2.89;84.06;100553.53;1024520;28;20079;-79
2021/12/11 00:30:58;;;;;;;30.20;15.07;;;;;;;-2.91;84.16;100552.56;1028207;28;20043;-78
2021/12/11 00:31:30;;;;;;;30.77;16.30;;;;;;;-2.90;84.09;100549.25;1024633;28;20047;-79
2021/12/11 00:32:06;;;;;;;36.22;15.98;;;;;;;-2.96;84.59;100549.69;1028742;28;20039;-79
2021/12/11 00:32:38;;;;;;;29.65;15.73;;;;;;;-2.91;84.29;100558.47;1032387;28;20504;-79
2021/12/11 00:33:19;;;;;;;39.22;16.67;;;;;;;-2.91;84.38;100563.50;1025584;28;20505;-79
2021/12/11 00:33:50;;;;;;;33.08;15.57;;;;;;;-2.94;84.19;100560.75;1016259;29;20083;-79
2021/12/11 00:34:22;;;;;;;30.95;15.23;;;;;;;-2.94;84.28;100560.75;1028278;28;20141;-79
2021/12/11 00:34:58;;;;;;;33.03;15.40;;;;;;;-2.99;84.35;100564.59;1020350;29;20125;-79
2021/12/11 00:35:29;;;;;;;32.83;15.25;;;;;;;-3.00;83.85;100572.91;1024280;29;20058;-79
2021/12/11 00:36:08;;;;;;;35.75;15.73;;;;;;;-3.00;84.93;100567.00;1028160;28;20062;-79
2021/12/11 00:36:40;;;;;;;34.22;15.60;;;;;;;-2.98;84.93;100571.38;1028258;28;20403;-79
2021/12/11 00:37:12;;;;;;;32.03;15.30;;;;;;;-2.97;85.26;100573.16;1021520;29;20142;-79
2021/12/11 00:37:44;;;;;;;33.75;15.90;;;;;;;-2.96;84.84;100574.91;1024092;28;20082;-79
2021/12/11 00:38:17;;;;;;;32.65;15.40;;;;;;;-2.92;85.48;100576.88;1028070;28;20070;-79
2021/12/11 00:38:50;;;;;;;30.95;15.95;;;;;;;-2.97;84.70;100573.16;1024273;29;20190;-79
2021/12/11 00:39:22;;;;;;;30.45;16.02;;;;;;;-2.97;85.27;100575.66;1032235;28;20047;-79
2021/12/11 00:39:57;;;;;;;33.55;15.40;;;;;;;-2.93;84.61;100580.16;1028202;28;20126;-79
2021/12/11 00:40:28;;;;;;;26.65;14.65;;;;;;;-2.92;84.66;100581.06;1028196;28;20533;-80
2021/12/11 00:41:02;;;;;;;35.03;16.13;;;;;;;-2.91;84.21;100582.81;1032267;28;20517;-79
2021/12/11 00:41:34;;;;;;;31.30;15.13;;;;;;;-2.87;84.39;100585.66;1032212;28;20046;-79
2021/12/11 00:42:06;;;;;;;31.38;15.25;;;;;;;-2.87;84.39;100579.75;1032259;28;20050;-78
2021/12/11 00:42:38;;;;;;;30.42;14.57;;;;;;;-2.88;84.59;100586.44;1032207;28;20082;-79
2021/12/11 00:43:15;;;;;;;31.05;15.07;;;;;;;-2.87;84.36;100587.31;1032345;28;20050;-79
2021/12/11 00:43:47;;;;;;;29.67;14.88;;;;;;;-2.89;84.12;100586.31;1026606;28;20050;-78
2021/12/11 00:44:20;;;;;;;25.70;14.63;;;;;;;-2.91;84.15;100583.69;1024106;29;20557;-79
2021/12/11 00:44:54;;;;;;;26.77;14.05;;;;;;;-2.92;83.81;100592.00;1028201;28;20078;-79
2021/12/11 00:45:29;;;;;;;27.85;14.73;;;;;;;-2.90;83.93;100587.97;1036298;28;20104;-79
2021/12/11 00:46:01;;;;;;;26.67;15.10;;;;;;;-2.89;83.77;100592.25;1032112;28;20047;-78
2021/12/11 00:46:33;;;;;;;24.48;14.38;;;;;;;-2.89;83.84;100589.72;1028278;28;20047;-79
2021/12/11 00:47:06;;;;;;;22.73;12.48;;;;;;;-2.92;84.10;100586.97;1032367;28;20132;-79
2021/12/11 00:47:44;;;;;;;24.73;13.48;;;;;;;-2.93;84.06;100595.28;1032273;28;20140;-79
2021/12/11 00:48:19;;;;;;;25.90;13.90;;;;;;;-3.00;84.38;100592.22;1027991;28;20050;-79
2021/12/11 00:48:50;;;;;;;33.40;15.27;;;;;;;-3.07;84.48;100590.84;1032174;28;20072;-79
2021/12/11 00:49:22;;;;;;;28.10;14.43;;;;;;;-3.04;84.75;100596.13;1028276;28;20050;-79
2021/12/11 00:49:57;;;;;;;25.35;14.43;;;;;;;-3.01;84.16;100595.50;1028395;28;20550;-79
2021/12/11 00:50:32;;;;;;;28.77;14.90;;;;;;;-3.08;84.56;100604.22;1023854;29;20062;-78
2021/12/11 00:51:11;;;;;;;35.00;15.23;;;;;;;-3.10;84.83;100600.72;1020214;29;20190;-79
2021/12/11 00:51:54;;;;;;;23.63;13.90;;;;;;;-3.11;85.00;100594.78;1020319;29;20052;-79
2021/12/11 00:52:33;;;;;;;28.90;14.30;;;;;;;-3.06;84.94;100597.66;1020186;29;20051;-79
2021/12/11 00:53:16;;;;;;;29.52;14.25;;;;;;;-3.09;85.47;100593.28;1020313;29;20051;-79
2021/12/11 00:53:50;;;;;;;27.92;15.05;;;;;;;-3.08;85.46;100599.16;1020338;29;20048;-79
2021/12/11 00:54:22;;;;;;;26.65;15.57;;;;;;;-3.05;86.02;100599.41;1024011;28;20106;-79
2021/12/11 00:54:54;;;;;;;28.88;14.15;;;;;;;-3.00;85.55;100600.63;1020254;29;20055;-78
2021/12/11 00:55:30;;;;;;;27.25;14.18;;;;;;;-3.01;86.04;100606.44;1024257;29;20055;-78
2021/12/11 00:56:18;;;;;;;31.27;14.77;;;;;;;-2.98;85.88;100604.16;1020310;29;20047;-78
2021/12/11 00:56:50;;;;;;;25.83;14.02;;;;;;;-2.99;85.38;100606.56;1028103;28;20094;-79
2021/12/11 00:57:22;;;;;;;24.38;13.80;;;;;;;-2.97;85.74;100608.44;1024202;29;20051;-79
2021/12/11 00:58:13;;;;;;;31.52;14.77;;;;;;;-2.96;85.64;100610.19;1024166;28;20171;-78
2021/12/11 00:58:45;;;;;;;28.05;13.00;;;;;;;-2.95;85.54;100609.44;1019973;29;20062;-79
2021/12/11 00:59:19;;;;;;;28.83;13.68;;;;;;;-2.95;85.81;100611.97;1017745;29;20075;-79
2021/12/11 01:00:22;;;;;;;33.80;14.98;;;;;;;-3.04;86.21;100621.34;1024170;29;20158;-78
2021/12/11 01:00:59;;;;;;;25.38;14.02;;;;;;;-3.05;85.57;100614.53;1012061;29;20147;-79
2021/12/11 01:01:35;;;;;;;29.88;14.10;;;;;;;-3.01;85.64;100621.56;1016175;29;20044;-78
2021/12/11 01:02:09;;;;;;;26.35;13.15;;;;;;;-3.03;86.39;100623.97;1019949;29;20528;-78
2021/12/11 01:02:42;;;;;;;27.48;14.30;;;;;;;-2.95;85.56;100622.03;1032204;28;20042;-78
2021/12/11 01:03:15;;;;;;;27.50;14.75;;;;;;;-2.95;85.91;100627.09;1032180;28;20042;-79
2021/12/11 01:03:57;;;;;;;27.52;14.43;;;;;;;-2.97;85.38;100628.59;1032283;28;20132;-79
2021/12/11 01:04:41;;;;;;;26.63;13.82;;;;;;;-3.01;86.03;100636.69;1024269;28;20372;-79
2021/12/11 01:05:13;;;;;;;24.83;13.68;;;;;;;-2.96;85.76;100639.56;1024161;29;20047;-79
2021/12/11 01:05:46;;;;;;;24.55;13.07;;;;;;;-3.01;85.68;100633.28;1024218;29;20055;-79
2021/12/11 01:06:28;;;;;;;22.90;14.02;;;;;;;-2.93;85.63;100633.09;1024209;29;20114;-78
2021/12/11 01:07:03;;;;;;;25.90;13.05;;;;;;;-2.93;85.19;100640.66;1028183;28;20133;-78
2021/12/11 01:07:35;;;;;;;23.95;13.88;;;;;;;-2.93;85.38;100640.66;1024147;29;20105;-79
2021/12/11 01:08:19;;;;;;;25.30;14.18;;;;;;;-2.91;85.65;100639.16;1025210;28;20126;-79
2021/12/11 01:09:14;;;;;;;26.60;13.55;;;;;;;-2.92;85.27;100639.91;1028035;28;20043;-79
2021/12/11 01:09:54;;;;;;;26.45;12.95;;;;;;;-2.92;85.24;100637.38;1024194;29;20055;-79
2021/12/11 01:10:27;;;;;;;29.63;13.60;;;;;;;-2.93;85.13;100635.63;1028185;28;20082;-79
2021/12/11 01:11:05;;;;;;;21.50;12.57;;;;;;;-2.92;85.42;100641.56;1028146;28;20055;-79
2021/12/11 01:11:49;;;;;;;24.27;13.35;;;;;;;-2.90;85.02;100647.56;1024262;29;20051;-79
2021/12/11 01:12:49;;;;;;;26.00;12.85;;;;;;;-2.94;85.38;100645.59;1028101;28;20058;-79
2021/12/11 01:13:25;;;;;;;24.90;13.38;;;;;;;-2.94;85.05;100648.13;1026519;28;20050;-79
2021/12/11 01:14:18;;;;;;;25.83;14.25;;;;;;;-2.91;85.38;100648.38;1024248;29;20426;-79
2021/12/11 01:14:57;;;;;;;24.00;12.15;;;;;;;-2.91;85.22;100656.78;1016182;29;20091;-79
2021/12/11 01:15:31;;;;;;;24.77;13.77;;;;;;;-2.88;85.31;100659.56;1016285;29;20056;-79
2021/12/11 01:16:06;;;;;;;28.17;14.30;;;;;;;-2.89;85.51;100657.78;1028037;28;20118;-79
2021/12/11 01:16:38;;;;;;;31.35;13.73;;;;;;;-2.88;85.40;100652.00;1024153;28;20051;-79
2021/12/11 01:17:12;;;;;;;25.23;14.32;;;;;;;-2.83;85.14;100649.78;1025857;28;20055;-79
2021/12/11 01:18:04;;;;;;;24.65;14.35;;;;;;;-2.82;85.06;100655.72;1028114;28;20051;-79
2021/12/11 01:18:42;;;;;;;29.83;13.52;;;;;;;-2.84;84.99;100657.25;1016096;29;20052;-79
2021/12/11 01:19:19;;;;;;;22.67;13.60;;;;;;;-2.84;84.96;100655.63;1024144;29;20047;-79
2021/12/11 01:19:54;;;;;;;25.98;14.00;;;;;;;-2.88;84.86;100664.59;1024324;29;20051;-79
2021/12/11 01:20:36;;;;;;;23.77;13.00;;;;;;;-2.84;85.16;100665.72;1026825;28;20095;-79
2021/12/11 01:21:27;;;;;;;32.08;13.32;;;;;;;-2.81;85.33;100667.59;1024159;29;20487;-78
2021/12/11 01:22:00;;;;;;;23.75;13.05;;;;;;;-2.82;85.25;100668.34;1016746;29;20067;-79
2021/12/11 01:22:35;;;;;;;28.77;13.60;;;;;;;-2.79;85.30;100678.66;1024177;29;20083;-79
2021/12/11 01:23:26;;;;;;;32.67;13.93;;;;;;;-2.78;84.66;100667.78;1016321;29;20441;-79
2021/12/11 01:24:45;;;;;;;25.50;14.05;;;;;;;-2.90;85.29;100675.31;1024086;29;20420;-79
2021/12/11 01:25:28;;;;;;;26.52;14.00;;;;;;;-2.89;86.08;100683.00;1016258;29;20083;-79
2021/12/11 01:26:02;;;;;;;26.73;14.15;;;;;;;-2.88;85.21;100681.34;1024085;29;20051;-79
2021/12/11 01:26:36;;;;;;;28.13;15.00;;;;;;;-2.89;85.40;100682.13;1020202;29;20139;-79
2021/12/11 01:27:09;;;;;;;28.90;14.48;;;;;;;-2.98;84.81;100677.25;1020199;29;20051;-79
2021/12/11 01:27:44;;;;;;;28.27;15.13;;;;;;;-3.00;85.96;100685.47;1027293;28;20042;-79
2021/12/11 01:28:16;;;;;;;26.85;15.85;;;;;;;-2.99;86.24;100687.22;1023966;29;20058;-79
2021/12/11 01:28:49;;;;;;;30.27;16.65;;;;;;;-2.99;86.73;100688.09;1028018;28;20042;-79
2021/12/11 01:29:22;;;;;;;29.13;15.93;;;;;;;-3.03;86.69;100683.59;1028029;28;20054;-79
2021/12/11 01:29:56;;;;;;;30.70;16.27;;;;;;;-2.92;86.95;100692.84;1026881;28;20142;-79
2021/12/11 01:30:31;;;;;;;30.55;16.48;;;;;;;-2.83;86.82;100686.75;1020145;29;20048;-79
2021/12/11 01:31:04;;;;;;;31.77;15.75;;;;;;;-2.88;86.02;100694.84;1028090;28;20533;-79
2021/12/11 01:31:36;;;;;;;33.13;16.48;;;;;;;-2.94;86.91;100694.34;1023803;29;20043;-79
2021/12/11 01:32:08;;;;;;;33.97;16.05;;;;;;;-2.84;86.42;100695.06;1023885;28;20428;-79
2021/12/11 01:32:40;;;;;;;26.67;15.55;;;;;;;-2.85;85.92;100698.34;1024310;29;20454;-79
2021/12/11 01:33:11;;;;;;;37.00;16.77;;;;;;;-2.79;86.16;100693.81;1024107;29;20079;-79
2021/12/11 01:33:43;;;;;;;29.05;14.85;;;;;;;-2.79;85.59;100693.81;1028645;28;20185;-79
2021/12/11 01:34:15;;;;;;;27.13;14.95;;;;;;;-2.81;86.44;100692.78;1025925;29;20070;-79
2021/12/11 01:34:47;;;;;;;28.85;15.07;;;;;;;-2.78;86.58;100698.06;1030267;28;20134;-79
2021/12/11 01:35:19;;;;;;;26.83;15.13;;;;;;;-2.83;86.48;100701.88;1030439;28;20405;-80
2021/12/11 01:35:51;;;;;;;27.05;15.32;;;;;;;-2.75;86.12;100703.34;1021658;29;20123;-80
2021/12/11 01:36:22;;;;;;;35.92;15.55;;;;;;;-2.73;85.71;100699.31;1025580;29;20051;-78
2021/12/11 01:36:54;;;;;;;25.35;14.32;;;;;;;-2.75;85.74;100705.88;1030030;28;20118;-79
2021/12/11 01:37:26;;;;;;;27.20;14.13;;;;;;;-2.70;85.83;100709.59;1020611;29;20042;-78
2021/12/11 01:38:03;;;;;;;31.52;14.23;;;;;;;-2.68;85.42;100703.03;1024129;29;20402;-79
2021/12/11 01:38:35;;;;;;;31.25;14.32;;;;;;;-2.65;85.43;100708.34;1019853;29;20102;-80
2021/12/11 01:39:12;;;;;;;24.77;13.95;;;;;;;-2.61;85.78;100704.41;1024245;29;20608;-79
2021/12/11 01:39:44;;;;;;;25.08;14.30;;;;;;;-2.61;84.99;100707.78;1020237;29;20175;-80
2021/12/11 01:40:18;;;;;;;24.50;13.93;;;;;;;-2.61;85.22;100715.34;1031948;28;20513;-79
2021/12/11 01:40:54;;;;;;;28.42;13.88;;;;;;;-2.63;84.83;100714.34;1032096;28;20050;-79
2021/12/11 01:41:27;;;;;;;28.10;13.75;;;;;;;-2.65;85.20;100718.44;1028134;28;20046;-79
2021/12/11 01:42:00;;;;;;;35.15;14.45;;;;;;;-2.63;85.06;100710.97;1024168;29;20047;-79
2021/12/11 01:42:33;;;;;;;25.42;13.90;;;;;;;-2.66;84.96;100716.66;1023982;29;20046;-79
2021/12/11 01:43:05;;;;;;;28.30;14.65;;;;;;;-2.66;84.67;100715.75;1024216;29;20803;-79
2021/12/11 01:43:37;;;;;;;26.95;14.23;;;;;;;-2.64;85.07;100714.25;1028119;28;20570;-79
2021/12/11 01:44:14;;;;;;;29.00;14.02;;;;;;;-2.72;84.83;100718.72;1016193;29;20079;-79
2021/12/11 01:44:47;;;;;;;24.95;13.55;;;;;;;-2.68;84.63;100722.34;1027994;28;20047;-79
2021/12/11 01:45:18;;;;;;;30.13;13.93;;;;;;;-2.79;84.54;100719.00;1019927;29;20058;-79
2021/12/11 01:45:51;;;;;;;26.15;14.60;;;;;;;-2.91;85.42;100722.34;1020117;29;20055;-79
2021/12/11 01:46:24;;;;;;;38.78;16.13;;;;;;;-2.91;85.84;100722.34;1027903;28;20043;-78
2021/12/11 01:46:58;;;;;;;30.98;17.13;;;;;;;-2.93;85.55;100716.28;1027980;28;20047;-78
2021/12/11 01:47:32;;;;;;;32.97;16.45;;;;;;;-2.94;86.19;100724.63;1024031;28;20426;-79
2021/12/11 01:48:04;;;;;;;29.90;16.30;;;;;;;-3.02;86.07;100720.66;1023962;29;20051;-79
2021/12/11 01:48:43;;;;;;;32.28;16.35;;;;;;;-3.04;86.61;100727.19;1027553;28;20075;-78
2021/12/11 01:49:20;;;;;;;29.77;16.88;;;;;;;-2.98;86.54;100727.66;1032091;28;20042;-79
2021/12/11 01:49:55;;;;;;;37.92;16.33;;;;;;;-2.88;86.01;100729.25;1027934;28;20105;-79
2021/12/11 01:50:35;;;;;;;35.17;15.77;;;;;;;-2.93;86.42;100730.56;1028071;28;20607;-79
2021/12/11 01:51:11;;;;;;;36.20;16.42;;;;;;;-2.89;86.25;100735.94;1020234;29;20051;-78
2021/12/11 01:51:52;;;;;;;25.70;14.88;;;;;;;-2.90;85.97;100731.66;1020051;29;20043;-78
2021/12/11 01:52:37;;;;;;;32.25;14.95;;;;;;;-2.92;85.47;100733.19;1024028;28;20387;-78
2021/12/11 01:53:24;;;;;;;28.67;15.65;;;;;;;-3.00;86.06;100736.75;1020170;29;20440;-79
2021/12/11 01:54:17;;;;;;;26.52;14.45;;;;;;;-2.94;85.65;100737.22;1020028;29;20115;-79
2021/12/11 01:54:49;;;;;;;27.92;14.20;;;;;;;-2.92;85.92;100747.44;1021014;29;20044;-79
2021/12/11 01:55:32;;;;;;;26.85;14.95;;;;;;;-3.03;86.13;100744.09;1024037;29;20410;-79
2021/12/11 01:56:10;;;;;;;37.30;15.63;;;;;;;-3.02;85.75;100740.81;1024173;29;20106;-79
2021/12/11 01:56:42;;;;;;;29.95;14.95;;;;;;;-3.03;85.70;100746.63;1020080;28;20044;-79
2021/12/11 01:57:19;;;;;;;29.42;14.80;;;;;;;-2.97;85.59;100749.59;1023860;28;20134;-79
2021/12/11 01:57:52;;;;;;;28.05;15.43;;;;;;;-2.99;85.52;100748.59;1024048;29;20055;-79
2021/12/11 01:58:34;;;;;;;27.30;15.45;;;;;;;-3.04;85.09;100752.41;1023641;28;20060;-79
2021/12/11 01:59:15;;;;;;;35.47;15.20;;;;;;;-3.01;85.56;100747.59;1023967;28;20050;-79
2021/12/11 01:59:52;;;;;;;33.35;15.32;;;;;;;-3.03;85.58;100747.47;1020139;29;20107;-79
2021/12/11 02:00:37;;;;;;;29.80;14.27;;;;;;;-2.91;85.55;100746.69;1020072;29;20059;-79
2021/12/11 02:01:15;;;;;;;25.08;13.85;;;;;;;-3.00;85.87;100753.53;1023882;29;20051;-79
2021/12/11 02:02:03;;;;;;;26.45;15.35;;;;;;;-2.94;85.62;100756.53;1020184;29;20110;-79
2021/12/11 02:02:47;;;;;;;28.95;14.70;;;;;;;-2.90;84.97;100756.88;1027955;28;20154;-79
2021/12/11 02:03:22;;;;;;;29.02;13.75;;;;;;;-2.86;84.98;100752.94;1027859;28;20055;-79
2021/12/11 02:03:53;;;;;;;31.30;14.55;;;;;;;-2.84;84.91;100755.59;1028012;28;20050;-79
2021/12/11 02:04:26;;;;;;;27.52;16.13;;;;;;;-2.84;84.64;100763.16;1027974;28;20588;-79
2021/12/11 02:04:57;;;;;;;25.05;15.20;;;;;;;-2.78;84.72;100762.00;1023963;29;20086;-79
2021/12/11 02:05:31;;;;;;;25.50;14.68;;;;;;;-2.76;84.37;100765.53;1019882;29;20118;-79
2021/12/11 02:06:02;;;;;;;29.20;15.38;;;;;;;-2.71;84.07;100763.31;1023952;29;20110;-79
2021/12/11 02:06:37;;;;;;;33.00;15.73;;;;;;;-2.67;84.02;100774.53;1019916;29;20099;-79
2021/12/11 02:07:18;;;;;;;27.65;15.30;;;;;;;-2.68;84.48;100762.72;1020099;29;20316;-79
2021/12/11 02:07:51;;;;;;;31.48;16.10;;;;;;;-2.67;84.48;100770.38;1024079;28;20090;-79
2021/12/11 02:08:27;;;;;;;30.40;15.23;;;;;;;-2.70;84.36;100770.13;1023684;29;20035;-79
2021/12/11 02:09:15;;;;;;;28.83;15.50;;;;;;;-2.68;84.58;100768.63;1020099;29;20040;-79
2021/12/11 02:09:55;;;;;;;35.90;15.65;;;;;;;-2.73;84.51;100769.91;1015860;29;20533;-79
2021/12/11 02:10:34;;;;;;;27.30;14.48;;;;;;;-2.75;85.04;100776.47;1016119;29;20412;-78
2021/12/11 02:11:11;;;;;;;23.63;13.85;;;;;;;-2.80;85.23;100775.25;1031941;28;20533;-79
2021/12/11 02:11:43;;;;;;;26.42;14.57;;;;;;;-2.89;85.32;100778.81;1023901;28;20047;-79
2021/12/11 02:12:20;;;;;;;26.75;14.52;;;;;;;-2.92;85.03;100782.72;1029822;28;20417;-79
2021/12/11 02:12:56;;;;;;;24.92;14.63;;;;;;;-2.94;85.76;100776.69;1027961;28;20050;-79
2021/12/11 02:13:41;;;;;;;22.60;13.98;;;;;;;-2.86;85.23;100778.16;1023993;29;20554;-79
2021/12/11 02:14:14;;;;;;;28.90;14.23;;;;;;;-2.84;85.42;100785.84;1028008;28;20054;-79
2021/12/11 02:14:50;;;;;;;26.67;14.82;;;;;;;-2.85;85.47;100779.03;1027892;28;20055;-79
2021/12/11 02:15:28;;;;;;;27.27;15.10;;;;;;;-2.82;84.96;100785.19;1020099;29;20067;-79
2021/12/11 02:16:00;;;;;;;21.80;13.05;;;;;;;-2.79;84.96;100785.44;1027873;28;20529;-78
2021/12/11 02:16:43;;;;;;;29.92;15.38;;;;;;;-2.83;84.79;100787.59;1032035;28;20075;-79
2021/12/11 02:17:31;;;;;;;24.70;14.57;;;;;;;-2.84;85.00;100793.41;1036022;28;20061;-79
2021/12/11 02:18:14;;;;;;;24.55;14.00;;;;;;;-2.87;85.34;100781.44;1023868;28;20498;-80
2021/12/11 02:18:49;;;;;;;25.40;13.52;;;;;;;-2.88;85.36;100785.63;1019706;29;20527;-79
2021/12/11 02:19:30;;;;;;;25.95;14.70;;;;;;;-2.88;85.06;100784.72;1035943;28;20136;-79
2021/12/11 02:20:05;;;;;;;26.80;14.38;;;;;;;-2.87;84.88;100787.34;1031855;28;20074;-79
2021/12/11 02:20:58;;;;;;;29.05;15.32;;;;;;;-2.92;85.45;100787.78;1020021;29;20079;-79
2021/12/11 02:21:34;;;;;;;24.17;14.18;;;;;;;-2.91;85.38;100790.41;1020002;29;20455;-79
2021/12/11 02:22:09;;;;;;;30.25;15.20;;;;;;;-2.92;85.72;100787.78;1027810;28;20047;-79
2021/12/11 02:22:44;;;;;;;29.55;14.68;;;;;;;-2.88;86.00;100794.81;1034966;28;20485;-79
2021/12/11 02:23:16;;;;;;;30.70;15.93;;;;;;;-2.84;85.60;100795.94;1031981;28;20050;-79
2021/12/11 02:24:03;;;;;;;34.55;16.92;;;;;;;-2.88;85.00;100790.66;1035893;28;20505;-79
2021/12/11 02:24:44;;;;;;;37.47;17.30;;;;;;;-2.88;85.72;100794.81;1023977;28;20047;-79
2021/12/11 02:25:19;;;;;;;35.08;17.45;;;;;;;-2.88;85.70;100794.81;1023999;29;20050;-79
2021/12/11 02:25:52;;;;;;;30.90;16.92;;;;;;;-2.88;85.41;100795.69;1023776;28;20539;-79
2021/12/11 02:26:24;;;;;;;38.88;17.98;;;;;;;-2.84;85.43;100795.94;1023873;29;20043;-79
2021/12/11 02:26:56;;;;;;;37.83;16.65;;;;;;;-2.89;85.02;100793.94;1020053;29;20040;-79
2021/12/11 02:27:32;;;;;;;35.75;17.77;;;;;;;-2.84;85.75;100798.44;1024023;29;20118;-79
2021/12/11 02:28:06;;;;;;;37.47;19.00;;;;;;;-2.82;85.29;100792.75;1027891;28;20038;-79
2021/12/11 02:28:41;;;;;;;37.10;17.98;;;;;;;-2.80;85.26;100798.81;1023628;29;20054;-79
2021/12/11 02:29:22;;;;;;;34.95;17.60;;;;;;;-2.82;85.18;100794.41;1027991;28;20186;-79
2021/12/11 02:29:56;;;;;;;33.97;17.65;;;;;;;-2.89;84.51;100804.03;1027941;28;20046;-79
2021/12/11 02:30:28;;;;;;;37.28;16.75;;;;;;;-3.01;85.53;100798.00;1027627;28;20082;-79
2021/12/11 02:31:27;;;;;;;34.97;17.17;;;;;;;-3.06;85.83;100791.72;1024420;28;20047;-79
2021/12/11 02:32:29;;;;;;;32.72;16.75;;;;;;;-3.11;86.50;100795.53;1027788;28;20047;-79
2021/12/11 02:33:17;;;;;;;32.22;15.98;;;;;;;-3.08;86.15;100798.28;1031649;28;20066;-79
2021/12/11 02:33:53;;;;;;;37.00;16.00;;;;;;;-3.04;86.33;100803.69;1026134;28;20058;-79
2021/12/11 02:34:29;;;;;;;29.80;16.42;;;;;;;-3.10;85.97;100794.78;1019674;29;20166;-79
2021/12/11 02:35:15;;;;;;;30.27;16.85;;;;;;;-3.07;85.88;100800.03;1023848;29;20051;-79
2021/12/11 02:36:07;;;;;;;30.88;16.60;;;;;;;-3.05;85.93;100798.53;1027612;28;20053;-79
2021/12/11 02:37:19;;;;;;;30.63;16.50;;;;;;;-3.03;85.90;100802.06;1020558;29;20075;-79
2021/12/11 02:37:52;;;;;;;;;;;;;;;-3.10;85.38;100802.34;1032143;28;20148;-79
2021/12/11 02:38:34;;;;;;;29.33;15.18;;;;;;;-3.14;85.46;100800.31;1035560;28;19922;-79
2021/12/11 02:39:11;;;;;;;27.33;16.48;;;;;;;-3.14;85.24;100800.31;1031761;28;20065;-79
2021/12/11 02:39:53;;;;;;;26.58;14.98;;;;;;;-3.13;84.84;100802.09;1027929;28;20054;-79
2021/12/11 02:40:34;;;;;;;26.80;15.18;;;;;;;-3.14;84.95;100800.31;1027863;28;20079;-79
2021/12/11 02:41:19;;;;;;;29.25;14.40;;;;;;;-3.14;85.54;100805.34;1031897;28;20057;-79
2021/12/11 02:41:51;;;;;;;26.95;14.57;;;;;;;-3.16;85.25;100806.91;1027804;28;20047;-79
2021/12/11 02:42:28;;;;;;;24.70;14.82;;;;;;;-3.12;85.51;100803.84;1031890;28;20184;-79
2021/12/11 02:43:25;;;;;;;22.67;13.75;;;;;;;-3.10;85.10;100807.38;1027604;28;20510;-80
2021/12/11 02:44:00;;;;;;;30.50;15.93;;;;;;;-3.09;85.22;100807.50;1024082;28;20043;-79
2021/12/11 02:44:42;;;;;;;33.47;14.00;;;;;;;-3.09;85.33;100809.16;1027894;28;20047;-79
2021/12/11 02:45:34;;;;;;;32.05;15.63;;;;;;;-3.07;85.58;100812.66;1031823;28;20050;-79
2021/12/11 02:46:10;;;;;;;25.88;13.63;;;;;;;-3.08;85.56;100811.78;1019810;29;20403;-79
2021/12/11 02:46:54;;;;;;;28.70;14.38;;;;;;;-3.08;85.02;100811.78;1023797;29;20186;-79
2021/12/11 02:47:47;;;;;;;29.38;14.27;;;;;;;-3.05;85.01;100816.19;1019958;29;20442;-79
2021/12/11 02:48:23;;;;;;;26.45;14.35;;;;;;;-3.06;85.24;100809.38;1023249;29;20179;-79
2021/12/11 02:49:06;;;;;;;26.85;13.43;;;;;;;-3.05;84.71;100816.19;1027605;28;20054;-79
2021/12/11 02:49:51;;;;;;;25.92;13.77;;;;;;;-3.06;85.37;100816.94;1023859;29;20051;-79
2021/12/11 02:50:30;;;;;;;26.67;13.30;;;;;;;-3.06;85.13;100810.28;1019725;29;20051;-79